Marine Express — 3FHX2 — position and weather

sailwx.info

Track history (hours):
 
Tides and Currents Weather Stations Pressure Air Temp Water Temp Dewpoint Dewpoint Depression Visibility Wind Speed Wind Dir Waves Ship Positions

Marine Express

Last reported at 2018-Apr-06 04:16 UTC. Time now 2018-Apr-19 23:24 UTC.
Position N 35°58' W 005°35'.
Warning: this ship's position is 13 days out of date.

Length 180 m; draft 10 m.

Type: Ship. MMSI: 354715000.

Date/timePositionNaut miles runAvg speedWind from/ knotsBaromVisibWave heightAir tempDewpointWater temp
2018-Apr-06 04:16N 35°58' W 005°35'5 0.2
2018-Apr-05 04:01N 35°54' W 005°30'0 0.0
2018-Apr-05 02:50N 35°54' W 005°30'0 0.0
2018-Apr-05 02:13N 35°54' W 005°30'0 0.0
2018-Apr-05 01:55N 35°54' W 005°30'4 0.8
2018-Apr-04 21:03N 35°54' W 005°34'0 2.5
2018-Apr-04 20:59N 35°54' W 005°34'1 2.3
2018-Apr-04 20:30N 35°55' W 005°33'1 2.2
2018-Apr-04 20:00N 35°55' W 005°32'510.1
2018-Apr-04 19:30N 35°55' W 005°38'  
2018-Mar-31 21:41N 49°44' W 003°38'213.0
2018-Mar-31 21:30N 49°45' W 003°35'612.3
2018-Mar-31 21:00N 49°48' W 003°26'611.6
2018-Mar-31 20:30N 49°51' W 003°19'611.2
2018-Mar-31 20:00N 49°54' W 003°11'510.7
2018-Mar-31 19:30N 49°56' W 003°04'510.4
2018-Mar-31 19:00N 49°59' W 002°57'510.2
2018-Mar-31 18:30N 50°00' W 002°49'610.4
2018-Mar-31 17:58N 50°02' W 002°41'510.9
2018-Mar-31 17:30N 50°03' W 002°33'8114.8
2018-Mar-31 12:03N 50°25' W 000°32'113.7
2018-Mar-31 12:00N 50°26' W 000°31'713.4
2018-Mar-31 11:30N 50°27' W 000°21'612.7
2018-Mar-31 11:00N 50°28' W 000°11'612.0
2018-Mar-31 10:30N 50°29' W 000°02'611.4
2018-Mar-31 10:00N 50°31' E 000°07'510.3
2018-Mar-31 09:30N 50°32' E 000°15'5 9.2
2018-Mar-31 09:00N 50°34' E 000°21'4 8.4
2018-Mar-31 08:30N 50°36' E 000°27'4 8.7
2018-Mar-31 08:00N 50°37' E 000°34'5 9.5
2018-Mar-31 07:30N 50°39' E 000°40'510.3
2018-Mar-31 07:00N 50°42' E 000°47'611.3
2018-Mar-31 06:30N 50°45' E 000°55'611.9
2018-Mar-31 06:00N 50°48' E 001°03'812.4
2018-Mar-31 05:22N 50°53' E 001°13'512.4
2018-Mar-31 05:00N 50°55' E 001°19'612.1
2018-Mar-31 04:30N 51°00' E 001°25'611.2
2018-Mar-31 04:00N 51°04' E 001°31'510.2
2018-Mar-31 03:30N 51°08' E 001°37'5 9.7
2018-Mar-31 03:00N 51°11' E 001°42'5 9.5
2018-Mar-31 02:30N 51°15' E 001°47'4 8.9
2018-Mar-31 02:00N 51°18' E 001°51'4 8.9
2018-Mar-31 01:31N 51°22' E 001°55'5 9.4
2018-Mar-31 01:01N 51°27' E 001°56'5 9.8
2018-Mar-31 00:31N 51°31' E 002°00'510.4
2018-Mar-31 00:01N 51°35' E 002°06'611.2
2018-Mar-30 23:30N 51°39' E 002°12'611.7
2018-Mar-30 22:59N 51°43' E 002°19'612.6
2018-Mar-30 22:30N 51°47' E 002°26'5613.4
2018-Mar-30 18:21N 52°26' E 003°32'812.9
2018-Mar-30 17:43N 52°31' E 003°43'512.3
2018-Mar-30 17:19N 52°31' E 003°51'412.3
2018-Mar-30 16:59N 52°31' E 003°57'612.1
2018-Mar-30 16:30N 52°31' E 004°07'611.6
2018-Mar-30 16:00N 52°31' E 004°17'611.4
2018-Mar-30 15:30N 52°29' E 004°26'510.2
2018-Mar-30 15:01N 52°28' E 004°34'2 3.5
2018-Mar-30 14:30N 52°28' E 004°37'1 1.1
2018-Mar-30 14:01N 52°28' E 004°37'3 5.8
2018-Mar-30 13:31N 52°27' E 004°42'3 5.0
2018-Mar-30 12:59N 52°25' E 004°45'0 0.0
2018-Mar-30 12:29N 52°25' E 004°45'0 0.0
2018-Mar-30 11:59N 52°25' E 004°45'0 0.0
2018-Mar-30 11:29N 52°25' E 004°45'0 0.0
2018-Mar-30 10:59N 52°25' E 004°45'0 0.0
2018-Mar-30 10:26N 52°25' E 004°45'0 0.0
2018-Mar-30 09:59N 52°25' E 004°45'0 0.0
2018-Mar-30 09:29N 52°25' E 004°45'0 0.0
2018-Mar-30 08:56N 52°25' E 004°45'0 0.0
2018-Mar-30 08:29N 52°25' E 004°45'0 0.0
2018-Mar-30 07:59N 52°25' E 004°45'0 0.0
2018-Mar-30 07:29N 52°25' E 004°45'0 0.0
2018-Mar-30 06:56N 52°25' E 004°45'0 0.0
2018-Mar-30 06:29N 52°25' E 004°45'0 0.0
2018-Mar-30 05:59N 52°25' E 004°45'0 0.0
2018-Mar-30 05:29N 52°25' E 004°45'0 0.0
2018-Mar-30 04:56N 52°25' E 004°45'0 0.0
2018-Mar-30 04:29N 52°25' E 004°45'0 0.0
2018-Mar-30 03:56N 52°25' E 004°45'0 0.0
2018-Mar-30 03:29N 52°25' E 004°45'0 0.0
2018-Mar-30 02:56N 52°25' E 004°45'0 0.0
2018-Mar-30 02:29N 52°25' E 004°45'0 0.0
2018-Mar-30 01:56N 52°25' E 004°45'0 0.0
2018-Mar-30 01:26N 52°25' E 004°45'0 0.0
2018-Mar-30 00:59N 52°25' E 004°45'0 0.0
2018-Mar-30 00:29N 52°25' E 004°45'0 0.0
2018-Mar-29 23:59N 52°25' E 004°45'0 0.0
2018-Mar-29 23:29N 52°25' E 004°45'0 0.0
2018-Mar-29 22:59N 52°25' E 004°45'0 0.0
2018-Mar-29 22:23N 52°25' E 004°45'0 0.0
2018-Mar-29 21:59N 52°25' E 004°45'0 0.0
2018-Mar-29 21:29N 52°25' E 004°45'0 0.0
2018-Mar-29 20:59N 52°25' E 004°45'0 0.0
2018-Mar-29 20:29N 52°25' E 004°45'0 0.0
2018-Mar-29 19:56N 52°25' E 004°45'0 0.0
2018-Mar-29 19:23N 52°25' E 004°45'0 0.0
2018-Mar-29 18:59N 52°25' E 004°45'0 0.0
2018-Mar-29 18:29N 52°25' E 004°45'0 0.0
2018-Mar-29 17:53N 52°25' E 004°45'0 0.0
2018-Mar-29 17:26N 52°25' E 004°45'0 0.0
2018-Mar-29 16:47N 52°25' E 004°45'0 0.0
2018-Mar-29 16:23N 52°25' E 004°45'0 0.0
2018-Mar-29 15:59N 52°25' E 004°45'0 0.0
2018-Mar-29 15:23N 52°25' E 004°45'0 0.0
2018-Mar-29 14:53N 52°25' E 004°45'0 0.0
2018-Mar-29 14:26N 52°25' E 004°45'0 0.0
2018-Mar-29 13:59N 52°25' E 004°45'0 0.0
2018-Mar-29 13:26N 52°25' E 004°45'0 0.0
2018-Mar-29 12:59N 52°25' E 004°45'0 0.0
2018-Mar-29 12:29N 52°25' E 004°45'0 0.0
2018-Mar-29 11:59N 52°25' E 004°45'0 0.0
2018-Mar-29 11:26N 52°25' E 004°45'0 0.0
2018-Mar-29 10:50N 52°25' E 004°45'0 0.0
2018-Mar-29 10:29N 52°25' E 004°45'0 0.0
2018-Mar-29 09:59N 52°25' E 004°45'0 0.0
2018-Mar-29 09:29N 52°25' E 004°45'0 0.0
2018-Mar-29 08:59N 52°25' E 004°45'0 0.0
2018-Mar-29 08:29N 52°25' E 004°45'0 0.0
2018-Mar-29 07:59N 52°25' E 004°45'0 0.0
2018-Mar-29 07:29N 52°25' E 004°45'0 0.0
2018-Mar-29 06:59N 52°25' E 004°45'0 0.0
2018-Mar-29 06:29N 52°25' E 004°45'0 0.0
2018-Mar-29 05:56N 52°25' E 004°45'0 0.0
2018-Mar-29 05:29N 52°25' E 004°45'0 0.0
2018-Mar-29 04:59N 52°25' E 004°45'0 0.0
2018-Mar-29 04:29N 52°25' E 004°45'0 0.0
2018-Mar-29 03:59N 52°25' E 004°45'0 0.0
2018-Mar-29 03:29N 52°25' E 004°45'0 0.0
2018-Mar-29 02:59N 52°25' E 004°45'0 0.0
2018-Mar-29 02:29N 52°25' E 004°45'0 0.0
2018-Mar-29 01:59N 52°25' E 004°45'0 0.0
2018-Mar-29 01:26N 52°25' E 004°45'0 0.0
2018-Mar-29 00:59N 52°25' E 004°45'0 0.0
2018-Mar-29 00:26N 52°25' E 004°45'0 0.0
2018-Mar-28 23:53N 52°25' E 004°45'0 0.0
2018-Mar-28 23:29N 52°25' E 004°45'0 0.0
2018-Mar-28 22:56N 52°25' E 004°45'0 0.0
2018-Mar-28 22:29N 52°25' E 004°45'0 0.0
2018-Mar-28 21:59N 52°25' E 004°45'0 0.0
2018-Mar-28 21:29N 52°25' E 004°45'0 0.0
2018-Mar-28 20:59N 52°25' E 004°45'0 0.0
2018-Mar-28 20:29N 52°25' E 004°45'0 0.0
2018-Mar-28 19:53N 52°25' E 004°45'0 0.0
2018-Mar-28 19:23N 52°25' E 004°45'0 0.0
2018-Mar-28 18:59N 52°25' E 004°45'0 0.0
2018-Mar-28 18:29N 52°25' E 004°45'0 0.0
2018-Mar-28 17:59N 52°25' E 004°45'0 0.0
2018-Mar-28 17:29N 52°25' E 004°45'0 0.0
2018-Mar-28 16:59N 52°25' E 004°45'0 0.0
2018-Mar-28 16:29N 52°25' E 004°45'0 0.0
2018-Mar-28 15:59N 52°25' E 004°45'0 0.0
2018-Mar-28 15:29N 52°25' E 004°45'0 0.0
2018-Mar-28 14:56N 52°25' E 004°45'0 0.0
2018-Mar-28 14:29N 52°25' E 004°45'0 0.0
2018-Mar-28 13:59N 52°25' E 004°45'0 0.0
2018-Mar-28 13:14N 52°25' E 004°45'0 0.0
2018-Mar-28 12:56N 52°25' E 004°45'0 0.0
2018-Mar-28 12:29N 52°25' E 004°45'0 0.0
2018-Mar-28 11:59N 52°25' E 004°45'0 0.0
2018-Mar-28 11:26N 52°25' E 004°45'0 0.0
2018-Mar-28 10:59N 52°25' E 004°45'0 0.0
2018-Mar-28 10:29N 52°25' E 004°45'0 0.0
2018-Mar-28 09:59N 52°25' E 004°45'0 0.0
2018-Mar-28 09:29N 52°25' E 004°45'0 0.0
2018-Mar-28 08:59N 52°25' E 004°45'0 0.0
2018-Mar-28 08:23N 52°25' E 004°45'0 0.0
2018-Mar-28 07:59N 52°25' E 004°45'0 0.0
2018-Mar-28 07:29N 52°25' E 004°45'0 0.0
2018-Mar-28 06:59N 52°25' E 004°45'0 0.0
2018-Mar-28 06:29N 52°25' E 004°45'0 0.0
2018-Mar-28 05:59N 52°25' E 004°45'0 0.0
2018-Mar-28 05:26N 52°25' E 004°45'0 0.0
2018-Mar-28 04:59N 52°25' E 004°45'0 0.0
2018-Mar-28 04:26N 52°25' E 004°45'0 0.0
2018-Mar-28 03:59N 52°25' E 004°45'0 0.0
2018-Mar-28 03:29N 52°25' E 004°45'0 0.0
2018-Mar-28 02:56N 52°25' E 004°45'0 0.0
2018-Mar-28 02:29N 52°25' E 004°45'0 0.0
2018-Mar-28 01:59N 52°25' E 004°45'0 0.0
2018-Mar-28 01:29N 52°25' E 004°45'0 0.0
2018-Mar-28 00:59N 52°25' E 004°45'0 0.0
2018-Mar-28 00:29N 52°25' E 004°45'0 0.0
2018-Mar-27 23:59N 52°25' E 004°45'0 0.0
2018-Mar-27 23:26N 52°25' E 004°45'0 0.0
2018-Mar-27 22:59N 52°25' E 004°45'0 0.0
2018-Mar-27 22:29N 52°25' E 004°45'0 0.0
2018-Mar-27 21:59N 52°25' E 004°45'0 0.0
2018-Mar-27 21:29N 52°25' E 004°45'0 0.0
2018-Mar-27 20:59N 52°25' E 004°45'0 0.0
2018-Mar-27 20:29N 52°25' E 004°45'0 0.0
2018-Mar-27 19:59N 52°25' E 004°45'0 0.0
2018-Mar-27 19:26N 52°25' E 004°45'0 0.0
2018-Mar-27 18:59N 52°25' E 004°45'0 0.0
2018-Mar-27 18:29N 52°25' E 004°45'0 0.0
2018-Mar-27 17:59N 52°25' E 004°45'0 0.0
2018-Mar-27 17:29N 52°25' E 004°45'0 0.0
2018-Mar-27 16:59N 52°25' E 004°45'0 0.0
2018-Mar-27 16:29N 52°25' E 004°45'0 0.0
2018-Mar-27 15:59N 52°25' E 004°45'0 0.0
2018-Mar-27 15:29N 52°25' E 004°45'0 0.0
2018-Mar-27 14:59N 52°25' E 004°45'0 0.0
2018-Mar-27 14:30N 52°25' E 004°45'1 2.1
2018-Mar-27 14:01N 52°26' E 004°45'3 5.1
2018-Mar-27 13:31N 52°27' E 004°41'3 5.9
2018-Mar-27 13:01N 52°28' E 004°36'0 0.2
2018-Mar-27 12:30N 52°28' E 004°36'3 5.9
2018-Mar-27 12:00N 52°28' E 004°31'5 9.7
2018-Mar-27 11:30N 52°29' E 004°24'5 9.7
2018-Mar-27 11:00N 52°29' E 004°16'3 6.8
2018-Mar-27 10:30N 52°28' E 004°10'4 7.8
2018-Mar-27 10:00N 52°26' E 004°05'2 2.9
2018-Mar-27 09:26N 52°26' E 004°02'0 0.0
2018-Mar-27 08:59N 52°26' E 004°02'0 0.1
2018-Mar-27 08:29N 52°26' E 004°02'0 0.1
2018-Mar-27 07:59N 52°26' E 004°02'0 0.0
2018-Mar-27 07:29N 52°26' E 004°02'0 0.0
2018-Mar-27 06:59N 52°26' E 004°02'0 0.0
2018-Mar-27 06:29N 52°26' E 004°02'0 0.1
2018-Mar-27 05:59N 52°26' E 004°02'0 0.0
2018-Mar-27 05:29N 52°26' E 004°02'0 0.1
2018-Mar-27 04:59N 52°26' E 004°02'0 0.1
2018-Mar-27 04:29N 52°26' E 004°02'  
Track history (hours):
 
Tides and Currents Weather Stations Pressure Air Temp Water Temp Dewpoint Dewpoint Depression Visibility Wind Speed Wind Dir Waves Ship Positions

Marine Express

Last reported at 2018-Apr-06 04:16 UTC. Time now 2018-Apr-19 23:24 UTC.
Position N 35°58' W 005°35'.
Warning: this ship's position is 13 days out of date.

Length 180 m; draft 10 m.

Type: Ship. MMSI: 354715000.

Date/timePositionNaut miles runAvg speedWind from/ knotsBaromVisibWave heightAir tempDewpointWater temp
2018-Apr-06 04:16N 35°58' W 005°35'5 0.2
2018-Apr-05 04:01N 35°54' W 005°30'0 0.0
2018-Apr-05 02:50N 35°54' W 005°30'0 0.0
2018-Apr-05 02:13N 35°54' W 005°30'0 0.0
2018-Apr-05 01:55N 35°54' W 005°30'4 0.8
2018-Apr-04 21:03N 35°54' W 005°34'0 2.5
2018-Apr-04 20:59N 35°54' W 005°34'1 2.3
2018-Apr-04 20:30N 35°55' W 005°33'1 2.2
2018-Apr-04 20:00N 35°55' W 005°32'510.1
2018-Apr-04 19:30N 35°55' W 005°38'  
2018-Mar-31 21:41N 49°44' W 003°38'213.0
2018-Mar-31 21:30N 49°45' W 003°35'612.3
2018-Mar-31 21:00N 49°48' W 003°26'611.6
2018-Mar-31 20:30N 49°51' W 003°19'611.2
2018-Mar-31 20:00N 49°54' W 003°11'510.7
2018-Mar-31 19:30N 49°56' W 003°04'510.4
2018-Mar-31 19:00N 49°59' W 002°57'510.2
2018-Mar-31 18:30N 50°00' W 002°49'610.4
2018-Mar-31 17:58N 50°02' W 002°41'510.9
2018-Mar-31 17:30N 50°03' W 002°33'8114.8
2018-Mar-31 12:03N 50°25' W 000°32'113.7
2018-Mar-31 12:00N 50°26' W 000°31'713.4
2018-Mar-31 11:30N 50°27' W 000°21'612.7
2018-Mar-31 11:00N 50°28' W 000°11'612.0
2018-Mar-31 10:30N 50°29' W 000°02'611.4
2018-Mar-31 10:00N 50°31' E 000°07'510.3
2018-Mar-31 09:30N 50°32' E 000°15'5 9.2
2018-Mar-31 09:00N 50°34' E 000°21'4 8.4
2018-Mar-31 08:30N 50°36' E 000°27'4 8.7
2018-Mar-31 08:00N 50°37' E 000°34'5 9.5
2018-Mar-31 07:30N 50°39' E 000°40'510.3
2018-Mar-31 07:00N 50°42' E 000°47'611.3
2018-Mar-31 06:30N 50°45' E 000°55'611.9
2018-Mar-31 06:00N 50°48' E 001°03'812.4
2018-Mar-31 05:22N 50°53' E 001°13'512.4
2018-Mar-31 05:00N 50°55' E 001°19'612.1
2018-Mar-31 04:30N 51°00' E 001°25'611.2
2018-Mar-31 04:00N 51°04' E 001°31'510.2
2018-Mar-31 03:30N 51°08' E 001°37'5 9.7
2018-Mar-31 03:00N 51°11' E 001°42'5 9.5
2018-Mar-31 02:30N 51°15' E 001°47'4 8.9
2018-Mar-31 02:00N 51°18' E 001°51'4 8.9
2018-Mar-31 01:31N 51°22' E 001°55'5 9.4
2018-Mar-31 01:01N 51°27' E 001°56'5 9.8
2018-Mar-31 00:31N 51°31' E 002°00'510.4
2018-Mar-31 00:01N 51°35' E 002°06'611.2
2018-Mar-30 23:30N 51°39' E 002°12'611.7
2018-Mar-30 22:59N 51°43' E 002°19'612.6
2018-Mar-30 22:30N 51°47' E 002°26'5613.4
2018-Mar-30 18:21N 52°26' E 003°32'812.9
2018-Mar-30 17:43N 52°31' E 003°43'512.3
2018-Mar-30 17:19N 52°31' E 003°51'412.3
2018-Mar-30 16:59N 52°31' E 003°57'612.1
2018-Mar-30 16:30N 52°31' E 004°07'611.6
2018-Mar-30 16:00N 52°31' E 004°17'611.4
2018-Mar-30 15:30N 52°29' E 004°26'510.2
2018-Mar-30 15:01N 52°28' E 004°34'2 3.5
2018-Mar-30 14:30N 52°28' E 004°37'1 1.1
2018-Mar-30 14:01N 52°28' E 004°37'3 5.8
2018-Mar-30 13:31N 52°27' E 004°42'3 5.0
2018-Mar-30 12:59N 52°25' E 004°45'0 0.0
2018-Mar-30 12:29N 52°25' E 004°45'0 0.0
2018-Mar-30 11:59N 52°25' E 004°45'0 0.0
2018-Mar-30 11:29N 52°25' E 004°45'0 0.0
2018-Mar-30 10:59N 52°25' E 004°45'0 0.0
2018-Mar-30 10:26N 52°25' E 004°45'0 0.0
2018-Mar-30 09:59N 52°25' E 004°45'0 0.0
2018-Mar-30 09:29N 52°25' E 004°45'0 0.0
2018-Mar-30 08:56N 52°25' E 004°45'0 0.0
2018-Mar-30 08:29N 52°25' E 004°45'0 0.0
2018-Mar-30 07:59N 52°25' E 004°45'0 0.0
2018-Mar-30 07:29N 52°25' E 004°45'0 0.0
2018-Mar-30 06:56N 52°25' E 004°45'0 0.0
2018-Mar-30 06:29N 52°25' E 004°45'0 0.0
2018-Mar-30 05:59N 52°25' E 004°45'0 0.0
2018-Mar-30 05:29N 52°25' E 004°45'0 0.0
2018-Mar-30 04:56N 52°25' E 004°45'0 0.0
2018-Mar-30 04:29N 52°25' E 004°45'0 0.0
2018-Mar-30 03:56N 52°25' E 004°45'0 0.0
2018-Mar-30 03:29N 52°25' E 004°45'0 0.0
2018-Mar-30 02:56N 52°25' E 004°45'0 0.0
2018-Mar-30 02:29N 52°25' E 004°45'0 0.0
2018-Mar-30 01:56N 52°25' E 004°45'0 0.0
2018-Mar-30 01:26N 52°25' E 004°45'0 0.0
2018-Mar-30 00:59N 52°25' E 004°45'0 0.0
2018-Mar-30 00:29N 52°25' E 004°45'0 0.0
2018-Mar-29 23:59N 52°25' E 004°45'0 0.0
2018-Mar-29 23:29N 52°25' E 004°45'0 0.0
2018-Mar-29 22:59N 52°25' E 004°45'0 0.0
2018-Mar-29 22:23N 52°25' E 004°45'0 0.0
2018-Mar-29 21:59N 52°25' E 004°45'0 0.0
2018-Mar-29 21:29N 52°25' E 004°45'0 0.0
2018-Mar-29 20:59N 52°25' E 004°45'0 0.0
2018-Mar-29 20:29N 52°25' E 004°45'0 0.0
2018-Mar-29 19:56N 52°25' E 004°45'0 0.0
2018-Mar-29 19:23N 52°25' E 004°45'0 0.0
2018-Mar-29 18:59N 52°25' E 004°45'0 0.0
2018-Mar-29 18:29N 52°25' E 004°45'0 0.0
2018-Mar-29 17:53N 52°25' E 004°45'0 0.0
2018-Mar-29 17:26N 52°25' E 004°45'0 0.0
2018-Mar-29 16:47N 52°25' E 004°45'0 0.0
2018-Mar-29 16:23N 52°25' E 004°45'0 0.0
2018-Mar-29 15:59N 52°25' E 004°45'0 0.0
2018-Mar-29 15:23N 52°25' E 004°45'0 0.0
2018-Mar-29 14:53N 52°25' E 004°45'0 0.0
2018-Mar-29 14:26N 52°25' E 004°45'0 0.0
2018-Mar-29 13:59N 52°25' E 004°45'0 0.0
2018-Mar-29 13:26N 52°25' E 004°45'0 0.0
2018-Mar-29 12:59N 52°25' E 004°45'0 0.0
2018-Mar-29 12:29N 52°25' E 004°45'0 0.0
2018-Mar-29 11:59N 52°25' E 004°45'0 0.0
2018-Mar-29 11:26N 52°25' E 004°45'0 0.0
2018-Mar-29 10:50N 52°25' E 004°45'0 0.0
2018-Mar-29 10:29N 52°25' E 004°45'0 0.0
2018-Mar-29 09:59N 52°25' E 004°45'0 0.0
2018-Mar-29 09:29N 52°25' E 004°45'0 0.0
2018-Mar-29 08:59N 52°25' E 004°45'0 0.0
2018-Mar-29 08:29N 52°25' E 004°45'0 0.0
2018-Mar-29 07:59N 52°25' E 004°45'0 0.0
2018-Mar-29 07:29N 52°25' E 004°45'0 0.0
2018-Mar-29 06:59N 52°25' E 004°45'0 0.0
2018-Mar-29 06:29N 52°25' E 004°45'0 0.0
2018-Mar-29 05:56N 52°25' E 004°45'0 0.0
2018-Mar-29 05:29N 52°25' E 004°45'0 0.0
2018-Mar-29 04:59N 52°25' E 004°45'0 0.0
2018-Mar-29 04:29N 52°25' E 004°45'0 0.0
2018-Mar-29 03:59N 52°25' E 004°45'0 0.0
2018-Mar-29 03:29N 52°25' E 004°45'0 0.0
2018-Mar-29 02:59N 52°25' E 004°45'0 0.0
2018-Mar-29 02:29N 52°25' E 004°45'0 0.0
2018-Mar-29 01:59N 52°25' E 004°45'0 0.0
2018-Mar-29 01:26N 52°25' E 004°45'0 0.0
2018-Mar-29 00:59N 52°25' E 004°45'0 0.0
2018-Mar-29 00:26N 52°25' E 004°45'0 0.0
2018-Mar-28 23:53N 52°25' E 004°45'0 0.0
2018-Mar-28 23:29N 52°25' E 004°45'0 0.0
2018-Mar-28 22:56N 52°25' E 004°45'0 0.0
2018-Mar-28 22:29N 52°25' E 004°45'0 0.0
2018-Mar-28 21:59N 52°25' E 004°45'0 0.0
2018-Mar-28 21:29N 52°25' E 004°45'0 0.0
2018-Mar-28 20:59N 52°25' E 004°45'0 0.0
2018-Mar-28 20:29N 52°25' E 004°45'0 0.0
2018-Mar-28 19:53N 52°25' E 004°45'0 0.0
2018-Mar-28 19:23N 52°25' E 004°45'0 0.0
2018-Mar-28 18:59N 52°25' E 004°45'0 0.0
2018-Mar-28 18:29N 52°25' E 004°45'0 0.0
2018-Mar-28 17:59N 52°25' E 004°45'0 0.0
2018-Mar-28 17:29N 52°25' E 004°45'0 0.0
2018-Mar-28 16:59N 52°25' E 004°45'0 0.0
2018-Mar-28 16:29N 52°25' E 004°45'0 0.0
2018-Mar-28 15:59N 52°25' E 004°45'0 0.0
2018-Mar-28 15:29N 52°25' E 004°45'0 0.0
2018-Mar-28 14:56N 52°25' E 004°45'0 0.0
2018-Mar-28 14:29N 52°25' E 004°45'0 0.0
2018-Mar-28 13:59N 52°25' E 004°45'0 0.0
2018-Mar-28 13:14N 52°25' E 004°45'0 0.0
2018-Mar-28 12:56N 52°25' E 004°45'0 0.0
2018-Mar-28 12:29N 52°25' E 004°45'0 0.0
2018-Mar-28 11:59N 52°25' E 004°45'0 0.0
2018-Mar-28 11:26N 52°25' E 004°45'0 0.0
2018-Mar-28 10:59N 52°25' E 004°45'0 0.0
2018-Mar-28 10:29N 52°25' E 004°45'0 0.0
2018-Mar-28 09:59N 52°25' E 004°45'0 0.0
2018-Mar-28 09:29N 52°25' E 004°45'0 0.0
2018-Mar-28 08:59N 52°25' E 004°45'0 0.0
2018-Mar-28 08:23N 52°25' E 004°45'0 0.0
2018-Mar-28 07:59N 52°25' E 004°45'0 0.0
2018-Mar-28 07:29N 52°25' E 004°45'0 0.0
2018-Mar-28 06:59N 52°25' E 004°45'0 0.0
2018-Mar-28 06:29N 52°25' E 004°45'0 0.0
2018-Mar-28 05:59N 52°25' E 004°45'0 0.0
2018-Mar-28 05:26N 52°25' E 004°45'0 0.0
2018-Mar-28 04:59N 52°25' E 004°45'0 0.0
2018-Mar-28 04:26N 52°25' E 004°45'0 0.0
2018-Mar-28 03:59N 52°25' E 004°45'0 0.0
2018-Mar-28 03:29N 52°25' E 004°45'0 0.0
2018-Mar-28 02:56N 52°25' E 004°45'0 0.0
2018-Mar-28 02:29N 52°25' E 004°45'0 0.0
2018-Mar-28 01:59N 52°25' E 004°45'0 0.0
2018-Mar-28 01:29N 52°25' E 004°45'0 0.0
2018-Mar-28 00:59N 52°25' E 004°45'0 0.0
2018-Mar-28 00:29N 52°25' E 004°45'0 0.0
2018-Mar-27 23:59N 52°25' E 004°45'0 0.0
2018-Mar-27 23:26N 52°25' E 004°45'0 0.0
2018-Mar-27 22:59N 52°25' E 004°45'0 0.0
2018-Mar-27 22:29N 52°25' E 004°45'0 0.0
2018-Mar-27 21:59N 52°25' E 004°45'0 0.0
2018-Mar-27 21:29N 52°25' E 004°45'0 0.0
2018-Mar-27 20:59N 52°25' E 004°45'0 0.0
2018-Mar-27 20:29N 52°25' E 004°45'0 0.0
2018-Mar-27 19:59N 52°25' E 004°45'0 0.0
2018-Mar-27 19:26N 52°25' E 004°45'0 0.0
2018-Mar-27 18:59N 52°25' E 004°45'0 0.0
2018-Mar-27 18:29N 52°25' E 004°45'0 0.0
2018-Mar-27 17:59N 52°25' E 004°45'0 0.0
2018-Mar-27 17:29N 52°25' E 004°45'0 0.0
2018-Mar-27 16:59N 52°25' E 004°45'0 0.0
2018-Mar-27 16:29N 52°25' E 004°45'0 0.0
2018-Mar-27 15:59N 52°25' E 004°45'0 0.0
2018-Mar-27 15:29N 52°25' E 004°45'0 0.0
2018-Mar-27 14:59N 52°25' E 004°45'0 0.0
2018-Mar-27 14:30N 52°25' E 004°45'1 2.1
2018-Mar-27 14:01N 52°26' E 004°45'3 5.1
2018-Mar-27 13:31N 52°27' E 004°41'3 5.9
2018-Mar-27 13:01N 52°28' E 004°36'0 0.2
2018-Mar-27 12:30N 52°28' E 004°36'3 5.9
2018-Mar-27 12:00N 52°28' E 004°31'5 9.7
2018-Mar-27 11:30N 52°29' E 004°24'5 9.7
2018-Mar-27 11:00N 52°29' E 004°16'3 6.8
2018-Mar-27 10:30N 52°28' E 004°10'4 7.8
2018-Mar-27 10:00N 52°26' E 004°05'2 2.9
2018-Mar-27 09:26N 52°26' E 004°02'0 0.0
2018-Mar-27 08:59N 52°26' E 004°02'0 0.1
2018-Mar-27 08:29N 52°26' E 004°02'0 0.1
2018-Mar-27 07:59N 52°26' E 004°02'0 0.0
2018-Mar-27 07:29N 52°26' E 004°02'0 0.0
2018-Mar-27 06:59N 52°26' E 004°02'0 0.0
2018-Mar-27 06:29N 52°26' E 004°02'0 0.1
2018-Mar-27 05:59N 52°26' E 004°02'0 0.0
2018-Mar-27 05:29N 52°26' E 004°02'0 0.1
2018-Mar-27 04:59N 52°26' E 004°02'0 0.1
2018-Mar-27 04:29N 52°26' E 004°02'  

Dump ship's entire track history